createdAt,value
2017-09-23T00:02:32.641Z,1015.58
2017-09-23T00:12:32.577Z,1015.63
2017-09-23T00:22:32.634Z,1015.73
2017-09-23T00:32:32.619Z,1015.66
2017-09-23T00:42:32.582Z,1015.57
2017-09-23T00:52:32.666Z,1015.55
2017-09-23T01:02:33.317Z,1015.54
2017-09-23T01:12:32.660Z,1015.47
2017-09-23T01:22:33.306Z,1015.58
2017-09-23T01:32:32.672Z,1015.54
2017-09-23T01:42:32.730Z,1015.61
2017-09-23T01:52:33.295Z,1015.69
2017-09-23T02:02:32.678Z,1015.65
2017-09-23T02:12:32.732Z,1015.66
2017-09-23T02:22:32.691Z,1015.76
2017-09-23T02:32:33.168Z,1015.8
2017-09-23T02:42:33.553Z,1015.71
2017-09-23T02:52:32.761Z,1015.75
2017-09-23T03:02:32.771Z,1015.84
2017-09-23T03:12:32.725Z,1015.85
2017-09-23T03:22:32.783Z,1015.93
2017-09-23T03:32:32.750Z,1015.87
2017-09-23T03:42:32.833Z,1015.76
2017-09-23T03:52:32.809Z,1015.89
2017-09-23T04:02:32.890Z,1015.94
2017-09-23T04:12:32.805Z,1015.93
2017-09-23T04:22:32.860Z,1015.96
2017-09-23T04:32:32.818Z,1016.1
2017-09-23T04:42:32.900Z,1016.03
2017-09-23T04:52:32.853Z,1016.02
2017-09-23T05:02:32.932Z,1016.13
2017-09-23T05:12:32.887Z,1016.22
2017-09-23T05:22:32.966Z,1016.28
2017-09-23T05:32:32.945Z,1016.38
2017-09-23T05:42:32.968Z,1016.55
2017-09-23T05:52:32.933Z,1016.64
2017-09-23T06:02:32.889Z,1016.69
2017-09-23T06:12:32.940Z,1016.74
2017-09-23T06:22:32.924Z,1016.72
2017-09-23T06:32:32.980Z,1016.66
2017-09-23T06:42:33.649Z,1016.62
2017-09-23T06:52:33.009Z,1016.67
2017-09-23T07:02:32.983Z,1016.66
2017-09-23T07:12:33.035Z,1016.76
2017-09-23T07:22:32.999Z,1016.91
2017-09-23T07:32:33.032Z,1016.98
2017-09-23T07:42:33.007Z,1017.13
2017-09-23T07:52:33.068Z,1017.28
2017-09-23T08:02:33.026Z,1017.35
2017-09-23T08:12:33.101Z,1017.47
2017-09-23T08:22:33.063Z,1017.42
2017-09-23T08:32:33.104Z,1017.52
2017-09-23T08:42:33.064Z,1017.58
2017-09-23T08:52:33.138Z,1017.61
2017-09-23T09:02:33.109Z,1017.67
2017-09-23T09:12:33.073Z,1017.63
2017-09-23T09:22:33.134Z,1017.67
2017-09-23T09:32:33.094Z,1017.65
2017-09-23T09:42:33.070Z,1017.59
2017-09-23T09:52:33.105Z,1017.55
2017-09-23T10:02:33.083Z,1017.53
2017-09-23T10:12:33.139Z,1017.51
2017-09-23T10:22:33.210Z,1017.37
2017-09-23T10:32:33.160Z,1017.37
2017-09-23T10:42:33.111Z,1017.34
2017-09-23T10:52:33.097Z,1017.38
2017-09-23T11:02:33.135Z,1017.33
2017-09-23T11:12:33.251Z,1017.15
2017-09-23T11:22:33.277Z,1017.23
2017-09-23T11:32:33.844Z,1017.12
2017-09-23T11:42:33.186Z,1017.1
2017-09-23T11:52:33.149Z,1017.06
2017-09-23T12:02:33.104Z,1016.97
2017-09-23T12:12:33.211Z,1016.79
2017-09-23T12:22:33.211Z,1016.86
2017-09-23T12:32:33.172Z,1016.84
2017-09-23T12:42:33.198Z,1016.72
2017-09-23T12:52:33.176Z,1016.71
2017-09-23T13:02:33.227Z,1016.68
2017-09-23T13:12:33.112Z,1016.65
2017-09-23T13:22:33.126Z,1016.69
2017-09-23T13:32:33.121Z,1016.52
2017-09-23T13:42:33.115Z,1016.48
2017-09-23T13:52:33.128Z,1016.45
2017-09-23T14:02:33.138Z,1016.38
2017-09-23T14:12:33.113Z,1016.4
2017-09-23T14:22:33.132Z,1016.31
2017-09-23T14:32:33.145Z,1016.26
2017-09-23T14:42:33.131Z,1016.08
2017-09-23T14:52:33.133Z,1016.04
2017-09-23T15:02:33.146Z,1015.92
2017-09-23T15:12:33.128Z,1015.99
2017-09-23T15:22:33.144Z,1015.95
2017-09-23T15:32:33.466Z,1015.91
2017-09-23T15:42:33.126Z,1015.97
2017-09-23T15:52:33.140Z,1015.92
2017-09-23T16:02:33.147Z,1015.97
2017-09-23T16:12:33.138Z,1015.81
2017-09-23T16:22:33.135Z,1015.73
2017-09-23T16:32:33.145Z,1015.79
2017-09-23T16:42:34.551Z,1015.94
2017-09-23T16:52:33.126Z,1015.96
2017-09-23T17:02:33.130Z,1015.89
2017-09-23T17:12:33.157Z,1015.91
2017-09-23T17:22:33.604Z,1015.92
2017-09-23T17:32:33.142Z,1015.92
2017-09-23T17:42:33.143Z,1015.88
2017-09-23T17:52:33.372Z,1015.96
2017-09-23T18:02:33.140Z,1015.91
2017-09-23T18:12:33.201Z,1015.85
2017-09-23T18:22:33.131Z,1015.92
2017-09-23T18:32:33.152Z,1015.9
2017-09-23T18:42:33.149Z,1015.87
2017-09-23T18:52:33.159Z,1015.84
2017-09-23T19:02:33.287Z,1015.84
2017-09-23T19:12:33.122Z,1015.92
2017-09-23T19:22:33.141Z,1015.98
2017-09-23T19:32:33.117Z,1015.99
2017-09-23T19:42:33.139Z,1016.04
2017-09-23T19:52:33.150Z,1015.95
2017-09-23T20:02:33.156Z,1015.97
2017-09-23T20:12:33.134Z,1015.88
2017-09-23T20:22:33.120Z,1015.91
2017-09-23T20:32:33.119Z,1015.9
2017-09-23T20:42:33.129Z,1015.98
2017-09-23T20:52:33.123Z,1015.94
2017-09-23T21:02:33.129Z,1015.77
2017-09-23T21:12:33.150Z,1015.82
2017-09-23T21:22:33.214Z,1015.83
2017-09-23T21:32:33.194Z,1015.84
2017-09-23T21:42:33.193Z,1015.81
2017-09-23T21:52:33.199Z,1015.78
2017-09-23T22:02:33.690Z,1015.71
2017-09-23T22:12:33.240Z,1015.66
2017-09-23T22:22:33.223Z,1015.59
2017-09-23T22:32:33.269Z,1015.63
2017-09-23T22:42:33.227Z,1015.66
2017-09-23T22:52:34.291Z,1015.64
2017-09-23T23:02:33.246Z,1015.59
2017-09-23T23:12:39.919Z,1015.68
2017-09-23T23:22:35.309Z,1015.66
2017-09-23T23:32:38.639Z,1015.68
2017-09-23T23:42:35.627Z,1015.62
2017-09-23T23:52:36.676Z,1015.55
